PBD770 LTFM-URKK
Flight info
| Callsign | PBD770 |
|---|---|
| Flight time | N/A |
| Altitude | 39000 |
| Route | EKAWE UT641 ABSAX UN743 ODIRA/K0843F390 G487 PROZR DCT MOBIT B949 SM |
| Aircraft | B738/M-SDE2E3FGHIRWXY/LB1 |
Departure
| Time | 2026-02-17 15:40 |
|---|---|
| Airport | İstanbul Airport (LTFM) |
Arrival
| Time | N/A |
|---|---|
| Airport | Krasnodar Pashkovsky International Airport (URKK) |
| Time | Latitude | Longitude | Altitude | Speed | Heading |
|---|---|---|---|---|---|
| 2026-02-17 14:40 | 41.26377 | 28.74369 | 312 ft | 0 kts | 237° |
| 2026-02-17 15:15 | 41.26382 | 28.74378 | 312 ft | 2 kts | 236° |
| 2026-02-17 15:15 | 41.26391 | 28.74397 | 312 ft | 2 kts | 237° |
| 2026-02-17 15:15 | 41.26400 | 28.74415 | 312 ft | 2 kts | 237° |
| 2026-02-17 15:16 | 41.26409 | 28.74434 | 311 ft | 2 kts | 238° |
| 2026-02-17 15:16 | 41.26418 | 28.74453 | 312 ft | 2 kts | 238° |
| 2026-02-17 15:16 | 41.26426 | 28.74471 | 311 ft | 2 kts | 239° |
| 2026-02-17 15:16 | 41.26434 | 28.74490 | 311 ft | 2 kts | 241° |
| 2026-02-17 15:17 | 41.26438 | 28.74500 | 311 ft | 0 kts | 238° |
| 2026-02-17 15:25 | 41.26438 | 28.74498 | 312 ft | 0 kts | 241° |
| 2026-02-17 15:25 | 41.26438 | 28.74497 | 312 ft | 0 kts | 248° |
| 2026-02-17 15:25 | 41.26441 | 28.74488 | 312 ft | 2 kts | 298° |
| 2026-02-17 15:25 | 41.26465 | 28.74469 | 312 ft | 6 kts | 343° |
| 2026-02-17 15:26 | 41.26519 | 28.74466 | 312 ft | 10 kts | 360° |
| 2026-02-17 15:26 | 41.26602 | 28.74465 | 312 ft | 14 kts | 359° |
| 2026-02-17 15:26 | 41.26709 | 28.74463 | 312 ft | 17 kts | 359° |
| 2026-02-17 15:27 | 41.26902 | 28.74460 | 311 ft | 14 kts | 359° |
| 2026-02-17 15:27 | 41.26997 | 28.74459 | 311 ft | 13 kts | 359° |
| 2026-02-17 15:27 | 41.27051 | 28.74419 | 310 ft | 7 kts | 287° |
| 2026-02-17 15:27 | 41.27055 | 28.74346 | 309 ft | 9 kts | 269° |
| 2026-02-17 15:28 | 41.27054 | 28.74247 | 310 ft | 12 kts | 269° |
| 2026-02-17 15:28 | 41.27052 | 28.74115 | 310 ft | 16 kts | 269° |
| 2026-02-17 15:28 | 41.27050 | 28.73955 | 310 ft | 19 kts | 269° |
| 2026-02-17 15:28 | 41.27048 | 28.73769 | 310 ft | 21 kts | 269° |
| 2026-02-17 15:29 | 41.27046 | 28.73562 | 310 ft | 23 kts | 269° |
| 2026-02-17 15:29 | 41.27043 | 28.73336 | 310 ft | 25 kts | 269° |
| 2026-02-17 15:29 | 41.27041 | 28.73113 | 307 ft | 24 kts | 269° |
| 2026-02-17 15:29 | 41.27057 | 28.72996 | 309 ft | 11 kts | 318° |
| 2026-02-17 15:30 | 41.27127 | 28.72985 | 309 ft | 11 kts | 359° |
| 2026-02-17 15:30 | 41.27222 | 28.72983 | 307 ft | 17 kts | 359° |
| 2026-02-17 15:30 | 41.27371 | 28.72980 | 306 ft | 25 kts | 359° |
| 2026-02-17 15:31 | 41.27769 | 28.72972 | 298 ft | 30 kts | 359° |
| 2026-02-17 15:31 | 41.27980 | 28.72968 | 293 ft | 30 kts | 360° |
| 2026-02-17 15:31 | 41.28194 | 28.72963 | 286 ft | 31 kts | 358° |
| 2026-02-17 15:31 | 41.28417 | 28.72960 | 275 ft | 32 kts | 359° |
| 2026-02-17 15:32 | 41.28640 | 28.72956 | 271 ft | 32 kts | 359° |
| 2026-02-17 15:32 | 41.28857 | 28.72951 | 271 ft | 31 kts | 359° |
| 2026-02-17 15:32 | 41.29078 | 28.72947 | 256 ft | 31 kts | 359° |
| 2026-02-17 15:32 | 41.29292 | 28.72943 | 241 ft | 32 kts | 359° |
| 2026-02-17 15:33 | 41.29445 | 28.72940 | 238 ft | 8 kts | 359° |
| 2026-02-17 15:33 | 41.29488 | 28.72905 | 243 ft | 7 kts | 293° |
| 2026-02-17 15:33 | 41.29494 | 28.72837 | 260 ft | 7 kts | 270° |
| 2026-02-17 15:33 | 41.29494 | 28.72772 | 279 ft | 7 kts | 269° |
| 2026-02-17 15:34 | 41.29493 | 28.72697 | 282 ft | 10 kts | 269° |
| 2026-02-17 15:34 | 41.29491 | 28.72561 | 276 ft | 20 kts | 269° |
| 2026-02-17 15:34 | 41.29489 | 28.72393 | 275 ft | 17 kts | 269° |
| 2026-02-17 15:35 | 41.29572 | 28.72233 | 240 ft | 11 kts | 359° |
| 2026-02-17 15:35 | 41.29646 | 28.72232 | 236 ft | 10 kts | 359° |
| 2026-02-17 15:35 | 41.29681 | 28.72302 | 246 ft | 10 kts | 90° |
| 2026-02-17 15:35 | 41.29682 | 28.72314 | 249 ft | 0 kts | 89° |
| 2026-02-17 15:37 | 41.29682 | 28.72313 | 249 ft | 1 kts | 89° |
| 2026-02-17 15:37 | 41.29681 | 28.72308 | 248 ft | 0 kts | 89° |
| 2026-02-17 15:37 | 41.29682 | 28.72332 | 254 ft | 7 kts | 89° |
| 2026-02-17 15:38 | 41.29682 | 28.72408 | 276 ft | 8 kts | 93° |
| 2026-02-17 15:38 | 41.29643 | 28.72457 | 280 ft | 9 kts | 174° |
| 2026-02-17 15:38 | 41.29611 | 28.72458 | 281 ft | 0 kts | 178° |
| 2026-02-17 15:39 | 41.29594 | 28.72459 | 282 ft | 18 kts | 179° |
| 2026-02-17 15:39 | 41.29216 | 28.72467 | 287 ft | 89 kts | 179° |
| 2026-02-17 15:39 | 41.28398 | 28.72482 | 303 ft | 146 kts | 179° |
| 2026-02-17 15:40 | 41.27299 | 28.72497 | 742 ft | 164 kts | 180° |
| 2026-02-17 15:40 | 41.26121 | 28.72514 | 1502 ft | 172 kts | 179° |
| 2026-02-17 15:40 | 41.24916 | 28.72577 | 2393 ft | 173 kts | 180° |
| 2026-02-17 15:40 | 41.23712 | 28.72642 | 3301 ft | 172 kts | 180° |
| 2026-02-17 15:41 | 41.22452 | 28.72708 | 3769 ft | 196 kts | 180° |
| 2026-02-17 15:41 | 41.21003 | 28.72628 | 4136 ft | 218 kts | 195° |
| 2026-02-17 15:41 | 41.19625 | 28.71753 | 4685 ft | 224 kts | 215° |
| 2026-02-17 15:41 | 41.18601 | 28.70185 | 5007 ft | 234 kts | 236° |
| 2026-02-17 15:42 | 41.18107 | 28.68064 | 5681 ft | 255 kts | 258° |
| 2026-02-17 15:42 | 41.18057 | 28.65648 | 6550 ft | 264 kts | 263° |
| 2026-02-17 15:42 | 41.18042 | 28.63192 | 7476 ft | 268 kts | 263° |
| 2026-02-17 15:43 | 41.18535 | 28.58189 | 9257 ft | 293 kts | 293° |
| 2026-02-17 15:43 | 41.19919 | 28.56128 | 10084 ft | 310 kts | 323° |
| 2026-02-17 15:43 | 41.22003 | 28.55085 | 10589 ft | 337 kts | 351° |
| 2026-02-17 15:43 | 41.24410 | 28.54985 | 10812 ft | 364 kts | 1° |
| 2026-02-17 15:44 | 41.27015 | 28.55102 | 11225 ft | 381 kts | 1° |
| 2026-02-17 15:44 | 41.29691 | 28.55161 | 11962 ft | 387 kts | 359° |
| 2026-02-17 15:44 | 41.32391 | 28.55268 | 12808 ft | 390 kts | 4° |
| 2026-02-17 15:44 | 41.35099 | 28.55688 | 13586 ft | 395 kts | 7° |
| 2026-02-17 15:45 | 41.37843 | 28.56187 | 14303 ft | 399 kts | 7° |
| 2026-02-17 15:45 | 41.40606 | 28.56652 | 15052 ft | 402 kts | 6° |
| 2026-02-17 15:45 | 41.43383 | 28.57220 | 15789 ft | 406 kts | 15° |
| 2026-02-17 15:45 | 41.45949 | 28.58790 | 16522 ft | 408 kts | 33° |
| 2026-02-17 15:46 | 41.48342 | 28.60838 | 17259 ft | 411 kts | 34° |
| 2026-02-17 15:46 | 41.48859 | 28.61290 | 17410 ft | 412 kts | 34° |
| 2026-02-17 15:47 | 41.53388 | 28.65278 | 18639 ft | 418 kts | 34° |
| 2026-02-17 15:47 | 41.55843 | 28.67418 | 19127 ft | 425 kts | 33° |
| 2026-02-17 15:47 | 41.58339 | 28.69575 | 19682 ft | 429 kts | 33° |
| 2026-02-17 15:47 | 41.60831 | 28.71716 | 20275 ft | 433 kts | 33° |
| 2026-02-17 15:48 | 41.63374 | 28.73898 | 20858 ft | 437 kts | 33° |
| 2026-02-17 15:48 | 41.65945 | 28.76103 | 21416 ft | 441 kts | 33° |
| 2026-02-17 15:48 | 41.68534 | 28.78328 | 21975 ft | 444 kts | 32° |
| 2026-02-17 15:48 | 41.71143 | 28.80573 | 22552 ft | 447 kts | 32° |
| 2026-02-17 15:49 | 41.73682 | 28.83006 | 23082 ft | 451 kts | 44° |
| 2026-02-17 15:49 | 41.75606 | 28.86306 | 23535 ft | 450 kts | 63° |
| 2026-02-17 15:49 | 41.76772 | 28.90193 | 23971 ft | 448 kts | 81° |
| 2026-02-17 15:49 | 41.77145 | 28.94321 | 24400 ft | 447 kts | 90° |
| 2026-02-17 15:50 | 41.77307 | 28.98444 | 24769 ft | 451 kts | 91° |
| 2026-02-17 15:50 | 41.77495 | 29.02662 | 25146 ft | 456 kts | 90° |
| 2026-02-17 15:50 | 41.77974 | 29.11210 | 25922 ft | 463 kts | 89° |
| 2026-02-17 15:51 | 41.78228 | 29.15539 | 26290 ft | 467 kts | 89° |
| 2026-02-17 15:51 | 41.78478 | 29.19908 | 26652 ft | 471 kts | 89° |
| 2026-02-17 15:51 | 41.79071 | 29.24251 | 26941 ft | 482 kts | 73° |
| 2026-02-17 15:51 | 41.80576 | 29.28297 | 27285 ft | 489 kts | 54° |
| 2026-02-17 15:52 | 41.82771 | 29.31792 | 27674 ft | 491 kts | 47° |
| 2026-02-17 15:52 | 41.85102 | 29.35171 | 27997 ft | 495 kts | 46° |
| 2026-02-17 15:52 | 41.87443 | 29.38588 | 28298 ft | 500 kts | 47° |
| 2026-02-17 15:52 | 41.89736 | 29.42040 | 28608 ft | 503 kts | 48° |
| 2026-02-17 15:53 | 41.92047 | 29.45584 | 28905 ft | 506 kts | 48° |
| 2026-02-17 15:53 | 41.94374 | 29.49160 | 29221 ft | 509 kts | 48° |
| 2026-02-17 15:53 | 41.96714 | 29.52750 | 29529 ft | 512 kts | 48° |
| 2026-02-17 15:53 | 41.99066 | 29.56356 | 29794 ft | 515 kts | 47° |
| 2026-02-17 15:54 | 42.01435 | 29.59988 | 30104 ft | 516 kts | 47° |
| 2026-02-17 15:54 | 42.03695 | 29.63728 | 30513 ft | 515 kts | 58° |
| 2026-02-17 15:54 | 42.05888 | 29.72736 | 31319 ft | 505 kts | 90° |
| 2026-02-17 15:55 | 42.05764 | 29.77427 | 31676 ft | 499 kts | 99° |
| 2026-02-17 15:55 | 42.05399 | 29.82017 | 31993 ft | 499 kts | 101° |
| 2026-02-17 15:55 | 42.04998 | 29.86665 | 32310 ft | 500 kts | 101° |
| 2026-02-17 15:55 | 42.04614 | 29.91316 | 32674 ft | 499 kts | 100° |
| 2026-02-17 15:56 | 42.04260 | 29.95961 | 33081 ft | 498 kts | 99° |
| 2026-02-17 15:56 | 42.03929 | 30.00590 | 33474 ft | 496 kts | 99° |
| 2026-02-17 15:56 | 42.03608 | 30.05206 | 33781 ft | 496 kts | 99° |
| 2026-02-17 15:56 | 42.03282 | 30.09828 | 34050 ft | 495 kts | 99° |
| 2026-02-17 15:57 | 42.02952 | 30.14434 | 34323 ft | 495 kts | 99° |
| 2026-02-17 15:57 | 42.02622 | 30.18979 | 34613 ft | 494 kts | 99° |
| 2026-02-17 15:57 | 42.02286 | 30.23570 | 34892 ft | 493 kts | 100° |
| 2026-02-17 15:57 | 42.01948 | 30.28155 | 35146 ft | 493 kts | 100° |
| 2026-02-17 15:58 | 42.01633 | 30.32416 | 35392 ft | 492 kts | 100° |
| 2026-02-17 15:58 | 42.01293 | 30.36997 | 35666 ft | 492 kts | 100° |
| 2026-02-17 15:58 | 42.00611 | 30.46138 | 36173 ft | 491 kts | 101° |
| 2026-02-17 15:59 | 42.00267 | 30.50714 | 36414 ft | 491 kts | 101° |
| 2026-02-17 15:59 | 41.99922 | 30.55270 | 36659 ft | 491 kts | 101° |
| 2026-02-17 15:59 | 41.99690 | 30.59862 | 36874 ft | 494 kts | 96° |
| 2026-02-17 15:59 | 41.99687 | 30.64499 | 37090 ft | 496 kts | 94° |
| 2026-02-17 16:00 | 41.99761 | 30.69099 | 37295 ft | 497 kts | 94° |
| 2026-02-17 16:00 | 41.99849 | 30.73742 | 37498 ft | 497 kts | 94° |
| 2026-02-17 16:00 | 41.99918 | 30.78400 | 37683 ft | 497 kts | 95° |
| 2026-02-17 16:00 | 41.99964 | 30.83050 | 37864 ft | 498 kts | 96° |
| 2026-02-17 16:01 | 41.99992 | 30.87697 | 38239 ft | 493 kts | 95° |
| 2026-02-17 16:01 | 42.00014 | 30.92293 | 38434 ft | 492 kts | 95° |
| 2026-02-17 16:01 | 42.00033 | 30.96910 | 38529 ft | 494 kts | 95° |
| 2026-02-17 16:02 | 42.00725 | 31.06140 | 38576 ft | 509 kts | 79° |
| 2026-02-17 16:02 | 42.03742 | 31.19971 | 38581 ft | 517 kts | 77° |
| 2026-02-17 16:03 | 42.05799 | 31.29276 | 38592 ft | 520 kts | 78° |
| 2026-02-17 16:03 | 42.07789 | 31.38601 | 38566 ft | 514 kts | 78° |
| 2026-02-17 16:04 | 42.09722 | 31.47816 | 38581 ft | 509 kts | 78° |
| 2026-02-17 16:04 | 42.11636 | 31.56992 | 38587 ft | 508 kts | 78° |
| 2026-02-17 16:05 | 42.13545 | 31.66166 | 38602 ft | 508 kts | 78° |
| 2026-02-17 16:05 | 42.15450 | 31.75350 | 38599 ft | 509 kts | 79° |
| 2026-02-17 16:06 | 42.17353 | 31.84561 | 38608 ft | 511 kts | 79° |
| 2026-02-17 16:07 | 42.20169 | 31.98272 | 38606 ft | 514 kts | 79° |
| 2026-02-17 16:07 | 42.22056 | 32.07513 | 38623 ft | 515 kts | 79° |
| 2026-02-17 16:08 | 42.23957 | 32.16854 | 38613 ft | 517 kts | 79° |
| 2026-02-17 16:08 | 42.27016 | 32.30864 | 38620 ft | 520 kts | 76° |
| 2026-02-17 16:09 | 42.29215 | 32.40183 | 38627 ft | 521 kts | 77° |
| 2026-02-17 16:09 | 42.31358 | 32.49524 | 38623 ft | 520 kts | 77° |
| 2026-02-17 16:10 | 42.32787 | 32.59004 | 38640 ft | 508 kts | 93° |
| 2026-02-17 16:10 | 42.32377 | 32.68358 | 38640 ft | 494 kts | 107° |
| 2026-02-17 16:11 | 42.31826 | 32.72934 | 38623 ft | 493 kts | 107° |
| 2026-02-17 16:11 | 42.30702 | 32.82087 | 38628 ft | 493 kts | 107° |
| 2026-02-17 16:12 | 42.29619 | 32.91254 | 38627 ft | 494 kts | 107° |
| 2026-02-17 16:12 | 42.28567 | 33.00380 | 38636 ft | 494 kts | 107° |
| 2026-02-17 16:13 | 42.27508 | 33.09554 | 38634 ft | 494 kts | 107° |
| 2026-02-17 16:13 | 42.26620 | 33.17184 | 38638 ft | 495 kts | 107° |
| 2026-02-17 16:14 | 42.25543 | 33.26355 | 38635 ft | 495 kts | 107° |
| 2026-02-17 16:14 | 42.23908 | 33.40149 | 38638 ft | 496 kts | 108° |
| 2026-02-17 16:15 | 42.22806 | 33.49373 | 38644 ft | 497 kts | 108° |
| 2026-02-17 16:15 | 42.21702 | 33.58540 | 38639 ft | 498 kts | 108° |
| 2026-02-17 16:16 | 42.20584 | 33.67780 | 38647 ft | 499 kts | 108° |
| 2026-02-17 16:16 | 42.19505 | 33.76888 | 38641 ft | 504 kts | 104° |
| 2026-02-17 16:17 | 42.19701 | 33.86504 | 38652 ft | 524 kts | 85° |
| 2026-02-17 16:17 | 42.21430 | 33.96050 | 38655 ft | 529 kts | 81° |
| 2026-02-17 16:18 | 42.23304 | 34.05672 | 38662 ft | 530 kts | 81° |
| 2026-02-17 16:19 | 42.25950 | 34.20169 | 38659 ft | 530 kts | 82° |